AWST,Max TemperatureF,Mean TemperatureF,Min TemperatureF,Max Dew PointF,MeanDew PointF,Min DewpointF,Max Humidity, Mean Humidity, Min Humidity, Max Sea Level PressureIn, Mean Sea Level PressureIn, Min Sea Level PressureIn, Max VisibilityMiles, Mean VisibilityMiles, Min VisibilityMiles, Max Wind SpeedMPH, Mean Wind SpeedMPH, Max Gust SpeedMPH,PrecipitationIn, CloudCover, Events, WindDirDegrees
2012-10-1,89,76,64,70,66,55,100,71,31,30.02,29.98,29.92,19,7,6,24,10,,0.00,2,,358
2012-10-2,86,76,67,70,67,63,94,72,38,30.10,30.02,29.95,19,7,6,13,7,,0.00,3,,2
2012-10-3,88,77,66,68,64,58,94,67,30,30.02,29.96,29.89,19,7,6,16,9,,0.00,2,,281
2012-10-4,88,78,67,70,66,61,94,70,34,29.96,29.91,29.86,19,7,6,16,9,,0.00,1,,283
2012-10-5,95,78,62,68,62,39,100,64,14,29.96,29.92,29.86,6,6,6,20,10,,0.00,,,274
2012-10-6,102,82,63,67,59,34,100,56,9,29.95,29.89,29.83,6,6,6,23,12,,0.00,,,259
2012-10-7,102,82,63,68,58,39,78,47,6,29.91,29.84,29.77,6,6,6,23,12,,0.00,,,263
2012-10-8,102,85,68,68,58,36,94,48,6,29.86,29.80,29.74,19,8,6,20,11,,0.00,,,256
2012-10-9,107,86,65,59,48,28,61,32,4,29.84,29.78,29.71,19,8,6,22,10,,0.00,0,,216
2012-10-10,103,88,74,61,47,30,54,29,4,29.94,29.86,29.80,19,8,6,21,10,30,0.00,,,147
2012-10-11,99,87,75,57,15,-15,50,9,4,30.02,29.94,29.86,9,6,2,25,14,36,0.00,1,,121
2012-10-12,101,86,69,63,22,-20,69,20,4,30.01,29.93,29.86,6,6,6,25,14,36,0.00,,,94
2012-10-13,91,76,61,75,58,21,94,53,13,29.98,29.93,29.89,6,6,6,17,11,,0.00,3,,22
2012-10-14,91,81,71,79,69,57,100,73,26,29.99,29.93,29.86,19,7,4,16,9,,0.00,4,,272
2012-10-15,101,83,65,72,66,48,100,64,17,29.97,29.91,29.86,19,7,6,17,9,,0.00,,,293
2012-10-16,104,85,66,70,56,23,94,44,4,29.92,29.85,29.77,19,7,6,21,12,,0.00,,,269
2012-10-17,97,83,69,70,62,46,83,51,18,29.87,29.82,29.77,19,7,6,21,12,,0.00,,,296
2012-10-18,96,83,70,90,69,63,100,66,29,29.90,29.84,29.80,19,7,6,21,12,,0.00,1,,288
2012-10-19,99,83,67,70,61,46,94,52,11,29.89,29.82,29.77,6,6,6,22,12,,0.00,,,283
2012-10-20,101,86,70,70,63,41,94,52,14,29.84,29.78,29.71,6,6,6,20,11,,0.00,,,280
2012-10-21,103,86,69,72,65,45,94,59,15,29.79,29.73,29.65,6,6,6,20,9,,0.00,,,291
2012-10-22,91,80,70,75,71,64,94,73,38,29.78,29.73,29.68,16,7,6,13,7,,0.00,,,360
2012-10-23,91,81,71,76,72,59,100,79,36,29.77,29.72,29.68,16,6,5,17,8,,0.00,1,,32
2012-10-24,94,82,71,75,72,63,100,78,40,29.85,29.76,29.71,9,6,4,21,10,,0.00,2,Fog,59
2012-10-25,95,84,72,73,64,55,89,54,23,29.88,29.81,29.74,9,6,6,22,11,,0.00,4,,48
2012-10-26,95,84,74,70,63,54,74,49,18,29.89,29.84,29.77,6,6,6,17,10,,0.00,7,,97
2012-10-27,103,88,74,70,55,41,70,37,8,29.88,29.81,29.71,6,6,6,23,11,26,0.00,3,,143
2012-10-28,98,88,79,82,62,50,100,48,12,29.84,29.79,29.71,19,7,6,22,11,,0.00,4,,144
2012-10-29,93,83,73,70,61,52,83,48,25,29.87,29.80,29.74,19,8,6,22,10,,0.00,,,51
2012-10-30,97,84,71,77,70,59,94,66,21,29.82,29.77,29.71,12,7,6,21,9,,0.00,1,,284
2012-10-31,97,86,74,75,68,54,100,62,17,29.85,29.79,29.71,19,7,6,22,11,,0.00,6,,280